sensor_id;sensor_type;location;lat;lon;timestamp;P1;durP1;ratioP1;P2;durP2;ratioP2
8232;SDS011;4157;48.074;9.952;2023-03-01T00:02:11;20.50;;;12.18;;
8232;SDS011;4157;48.074;9.952;2023-03-01T00:04:39;20.85;;;12.50;;
8232;SDS011;4157;48.074;9.952;2023-03-01T00:07:06;23.17;;;14.05;;
8232;SDS011;4157;48.074;9.952;2023-03-01T00:09:36;22.17;;;12.98;;
8232;SDS011;4157;48.074;9.952;2023-03-01T00:12:06;21.10;;;13.35;;
8232;SDS011;4157;48.074;9.952;2023-03-01T00:14:35;21.30;;;12.70;;
8232;SDS011;4157;48.074;9.952;2023-03-01T00:17:03;22.08;;;13.80;;
8232;SDS011;4157;48.074;9.952;2023-03-01T00:19:30;22.13;;;13.48;;
8232;SDS011;4157;48.074;9.952;2023-03-01T00:21:58;22.52;;;13.05;;
8232;SDS011;4157;48.074;9.952;2023-03-01T00:24:25;20.65;;;17.65;;
8232;SDS011;4157;48.074;9.952;2023-03-01T00:26:54;22.92;;;13.18;;
8232;SDS011;4157;48.074;9.952;2023-03-01T00:29:22;20.45;;;12.23;;
8232;SDS011;4157;48.074;9.952;2023-03-01T00:31:50;20.67;;;12.77;;
8232;SDS011;4157;48.074;9.952;2023-03-01T00:34:18;23.05;;;12.95;;
8232;SDS011;4157;48.074;9.952;2023-03-01T00:36:46;21.40;;;18.45;;
8232;SDS011;4157;48.074;9.952;2023-03-01T00:39:14;20.25;;;12.70;;
8232;SDS011;4157;48.074;9.952;2023-03-01T00:41:41;20.75;;;17.50;;
8232;SDS011;4157;48.074;9.952;2023-03-01T00:44:11;24.15;;;12.95;;
8232;SDS011;4157;48.074;9.952;2023-03-01T00:46:39;20.52;;;12.43;;
8232;SDS011;4157;48.074;9.952;2023-03-01T00:49:06;22.83;;;14.02;;
8232;SDS011;4157;48.074;9.952;2023-03-01T00:51:34;22.27;;;12.80;;
8232;SDS011;4157;48.074;9.952;2023-03-01T00:54:02;24.10;;;13.90;;
8232;SDS011;4157;48.074;9.952;2023-03-01T00:56:30;25.08;;;13.57;;
8232;SDS011;4157;48.074;9.952;2023-03-01T00:58:58;21.25;;;12.35;;
8232;SDS011;4157;48.074;9.952;2023-03-01T01:01:27;23.90;;;13.32;;
8232;SDS011;4157;48.074;9.952;2023-03-01T01:03:56;20.75;;;13.15;;
8232;SDS011;4157;48.074;9.952;2023-03-01T01:06:25;22.73;;;13.27;;
8232;SDS011;4157;48.074;9.952;2023-03-01T01:08:53;22.00;;;13.10;;
8232;SDS011;4157;48.074;9.952;2023-03-01T01:11:21;25.15;;;15.13;;
8232;SDS011;4157;48.074;9.952;2023-03-01T01:13:49;22.13;;;14.23;;
8232;SDS011;4157;48.074;9.952;2023-03-01T01:16:17;22.00;;;19.15;;
8232;SDS011;4157;48.074;9.952;2023-03-01T01:18:46;21.00;;;18.27;;
8232;SDS011;4157;48.074;9.952;2023-03-01T01:21:15;24.67;;;14.40;;
8232;SDS011;4157;48.074;9.952;2023-03-01T01:23:43;22.83;;;14.35;;
8232;SDS011;4157;48.074;9.952;2023-03-01T01:26:12;22.80;;;14.02;;
8232;SDS011;4157;48.074;9.952;2023-03-01T01:28:40;20.55;;;12.82;;
8232;SDS011;4157;48.074;9.952;2023-03-01T01:31:08;19.38;;;12.70;;
8232;SDS011;4157;48.074;9.952;2023-03-01T01:33:36;23.85;;;19.20;;
8232;SDS011;4157;48.074;9.952;2023-03-01T01:36:06;21.13;;;18.83;;
8232;SDS011;4157;48.074;9.952;2023-03-01T01:38:34;24.13;;;13.95;;
8232;SDS011;4157;48.074;9.952;2023-03-01T01:41:02;24.63;;;14.65;;
8232;SDS011;4157;48.074;9.952;2023-03-01T01:43:32;24.48;;;14.55;;
8232;SDS011;4157;48.074;9.952;2023-03-01T01:46:01;24.80;;;15.48;;
8232;SDS011;4157;48.074;9.952;2023-03-01T01:48:32;23.17;;;13.88;;
8232;SDS011;4157;48.074;9.952;2023-03-01T01:51:08;24.42;;;14.18;;
8232;SDS011;4157;48.074;9.952;2023-03-01T01:53:37;24.10;;;14.45;;
8232;SDS011;4157;48.074;9.952;2023-03-01T01:56:07;26.55;;;15.18;;
8232;SDS011;4157;48.074;9.952;2023-03-01T01:58:38;24.92;;;15.07;;
8232;SDS011;4157;48.074;9.952;2023-03-01T02:01:08;22.50;;;14.88;;
8232;SDS011;4157;48.074;9.952;2023-03-01T02:03:39;22.23;;;13.75;;
8232;SDS011;4157;48.074;9.952;2023-03-01T02:06:13;26.13;;;14.77;;
8232;SDS011;4157;48.074;9.952;2023-03-01T02:08:44;25.33;;;14.05;;
8232;SDS011;4157;48.074;9.952;2023-03-01T02:11:13;28.15;;;14.93;;
8232;SDS011;4157;48.074;9.952;2023-03-01T02:13:41;24.48;;;15.07;;
8232;SDS011;4157;48.074;9.952;2023-03-01T02:16:09;27.40;;;16.90;;
8232;SDS011;4157;48.074;9.952;2023-03-01T02:18:37;23.55;;;15.15;;
8232;SDS011;4157;48.074;9.952;2023-03-01T02:32:31;25.75;;;14.43;;
8232;SDS011;4157;48.074;9.952;2023-03-01T02:34:59;23.33;;;14.63;;
8232;SDS011;4157;48.074;9.952;2023-03-01T02:37:27;24.83;;;14.40;;
8232;SDS011;4157;48.074;9.952;2023-03-01T02:39:56;24.98;;;15.23;;
8232;SDS011;4157;48.074;9.952;2023-03-01T02:42:26;23.48;;;13.25;;
8232;SDS011;4157;48.074;9.952;2023-03-01T02:44:55;26.42;;;15.10;;
8232;SDS011;4157;48.074;9.952;2023-03-01T02:47:23;25.67;;;14.25;;
8232;SDS011;4157;48.074;9.952;2023-03-01T02:49:52;24.75;;;14.05;;
8232;SDS011;4157;48.074;9.952;2023-03-01T02:52:26;23.85;;;19.90;;
8232;SDS011;4157;48.074;9.952;2023-03-01T02:54:56;24.67;;;14.25;;
8232;SDS011;4157;48.074;9.952;2023-03-01T02:57:25;26.73;;;14.77;;
8232;SDS011;4157;48.074;9.952;2023-03-01T02:59:55;23.45;;;14.95;;
8232;SDS011;4157;48.074;9.952;2023-03-01T03:02:25;29.63;;;16.23;;
8232;SDS011;4157;48.074;9.952;2023-03-01T03:05:08;23.73;;;14.63;;
8232;SDS011;4157;48.074;9.952;2023-03-01T03:07:37;25.27;;;14.95;;
8232;SDS011;4157;48.074;9.952;2023-03-01T03:10:06;24.27;;;15.23;;
8232;SDS011;4157;48.074;9.952;2023-03-01T03:12:34;25.15;;;14.32;;
8232;SDS011;4157;48.074;9.952;2023-03-01T03:15:02;24.65;;;15.20;;
8232;SDS011;4157;48.074;9.952;2023-03-01T03:17:34;26.05;;;15.80;;
8232;SDS011;4157;48.074;9.952;2023-03-01T04:37:50;25.40;;;14.77;;
8232;SDS011;4157;48.074;9.952;2023-03-01T04:40:18;24.08;;;14.50;;
8232;SDS011;4157;48.074;9.952;2023-03-01T04:42:46;27.13;;;14.50;;
8232;SDS011;4157;48.074;9.952;2023-03-01T04:45:14;22.67;;;14.43;;
8232;SDS011;4157;48.074;9.952;2023-03-01T04:47:42;25.33;;;16.17;;
8232;SDS011;4157;48.074;9.952;2023-03-01T04:50:11;25.27;;;15.80;;
8232;SDS011;4157;48.074;9.952;2023-03-01T04:52:39;26.85;;;16.20;;
8232;SDS011;4157;48.074;9.952;2023-03-01T04:55:09;26.33;;;16.75;;
8232;SDS011;4157;48.074;9.952;2023-03-01T04:57:38;25.48;;;16.05;;
8232;SDS011;4157;48.074;9.952;2023-03-01T05:00:07;24.75;;;15.55;;
8232;SDS011;4157;48.074;9.952;2023-03-01T05:02:46;23.50;;;14.50;;
8232;SDS011;4157;48.074;9.952;2023-03-01T05:05:19;25.40;;;15.75;;
8232;SDS011;4157;48.074;9.952;2023-03-01T05:07:54;24.35;;;14.85;;
8232;SDS011;4157;48.074;9.952;2023-03-01T05:10:23;24.48;;;16.15;;
8232;SDS011;4157;48.074;9.952;2023-03-01T05:12:51;24.27;;;15.23;;
8232;SDS011;4157;48.074;9.952;2023-03-01T05:15:19;29.08;;;15.68;;
8232;SDS011;4157;48.074;9.952;2023-03-01T05:17:51;23.50;;;14.65;;
8232;SDS011;4157;48.074;9.952;2023-03-01T05:20:19;28.25;;;16.33;;
8232;SDS011;4157;48.074;9.952;2023-03-01T05:22:49;23.95;;;15.40;;
8232;SDS011;4157;48.074;9.952;2023-03-01T05:25:16;26.50;;;16.15;;
8232;SDS011;4157;48.074;9.952;2023-03-01T05:27:46;25.73;;;16.33;;
8232;SDS011;4157;48.074;9.952;2023-03-01T05:30:14;27.02;;;15.57;;
8232;SDS011;4157;48.074;9.952;2023-03-01T05:32:43;25.13;;;15.68;;
8232;SDS011;4157;48.074;9.952;2023-03-01T05:35:11;27.73;;;16.60;;
8232;SDS011;4157;48.074;9.952;2023-03-01T05:37:40;26.95;;;15.93;;
8232;SDS011;4157;48.074;9.952;2023-03-01T05:40:09;25.75;;;16.25;;
8232;SDS011;4157;48.074;9.952;2023-03-01T05:42:42;26.65;;;16.65;;
8232;SDS011;4157;48.074;9.952;2023-03-01T05:45:11;29.98;;;17.70;;
8232;SDS011;4157;48.074;9.952;2023-03-01T05:47:39;39.15;;;21.67;;
8232;SDS011;4157;48.074;9.952;2023-03-01T05:50:10;24.55;;;14.82;;
8232;SDS011;4157;48.074;9.952;2023-03-01T05:52:38;27.50;;;17.00;;
8232;SDS011;4157;48.074;9.952;2023-03-01T05:55:06;29.52;;;16.42;;
8232;SDS011;4157;48.074;9.952;2023-03-01T05:57:34;27.70;;;15.85;;
8232;SDS011;4157;48.074;9.952;2023-03-01T06:00:02;24.92;;;22.02;;
8232;SDS011;4157;48.074;9.952;2023-03-01T06:02:39;26.67;;;15.57;;
8232;SDS011;4157;48.074;9.952;2023-03-01T06:05:07;26.40;;;15.55;;
8232;SDS011;4157;48.074;9.952;2023-03-01T06:07:36;26.63;;;16.88;;
8232;SDS011;4157;48.074;9.952;2023-03-01T06:10:04;25.52;;;15.85;;
8232;SDS011;4157;48.074;9.952;2023-03-01T06:12:32;22.90;;;15.30;;
8232;SDS011;4157;48.074;9.952;2023-03-01T06:15:00;25.00;;;16.25;;
8232;SDS011;4157;48.074;9.952;2023-03-01T06:17:28;28.60;;;16.48;;
8232;SDS011;4157;48.074;9.952;2023-03-01T06:19:58;27.05;;;16.40;;
8232;SDS011;4157;48.074;9.952;2023-03-01T06:22:26;27.77;;;16.33;;
8232;SDS011;4157;48.074;9.952;2023-03-01T06:24:54;24.77;;;15.00;;
8232;SDS011;4157;48.074;9.952;2023-03-01T06:27:22;26.92;;;16.20;;
8232;SDS011;4157;48.074;9.952;2023-03-01T06:29:49;27.80;;;16.35;;
8232;SDS011;4157;48.074;9.952;2023-03-01T06:32:17;26.58;;;16.30;;
8232;SDS011;4157;48.074;9.952;2023-03-01T06:34:45;27.42;;;15.80;;
8232;SDS011;4157;48.074;9.952;2023-03-01T06:37:14;26.73;;;16.30;;
8232;SDS011;4157;48.074;9.952;2023-03-01T06:39:41;27.85;;;16.20;;
8232;SDS011;4157;48.074;9.952;2023-03-01T06:42:09;27.23;;;17.23;;
8232;SDS011;4157;48.074;9.952;2023-03-01T06:44:37;27.33;;;15.68;;
8232;SDS011;4157;48.074;9.952;2023-03-01T06:47:04;27.42;;;15.82;;
8232;SDS011;4157;48.074;9.952;2023-03-01T06:49:32;23.98;;;15.50;;
8232;SDS011;4157;48.074;9.952;2023-03-01T06:52:00;28.23;;;16.67;;
8232;SDS011;4157;48.074;9.952;2023-03-01T06:54:29;26.40;;;22.42;;
8232;SDS011;4157;48.074;9.952;2023-03-01T06:56:56;27.38;;;16.17;;
8232;SDS011;4157;48.074;9.952;2023-03-01T06:59:24;26.02;;;16.77;;
8232;SDS011;4157;48.074;9.952;2023-03-01T07:01:51;25.25;;;16.52;;
8232;SDS011;4157;48.074;9.952;2023-03-01T07:04:19;26.13;;;15.55;;
8232;SDS011;4157;48.074;9.952;2023-03-01T07:06:47;24.17;;;15.27;;
8232;SDS011;4157;48.074;9.952;2023-03-01T07:09:20;27.75;;;15.95;;
8232;SDS011;4157;48.074;9.952;2023-03-01T07:11:49;25.40;;;15.05;;
8232;SDS011;4157;48.074;9.952;2023-03-01T07:14:17;25.80;;;15.40;;
8232;SDS011;4157;48.074;9.952;2023-03-01T07:16:45;26.45;;;15.90;;
8232;SDS011;4157;48.074;9.952;2023-03-01T07:19:13;28.70;;;17.17;;
8232;SDS011;4157;48.074;9.952;2023-03-01T07:21:41;26.15;;;16.33;;
8232;SDS011;4157;48.074;9.952;2023-03-01T07:24:08;24.63;;;15.75;;
8232;SDS011;4157;48.074;9.952;2023-03-01T07:26:36;28.52;;;16.30;;
8232;SDS011;4157;48.074;9.952;2023-03-01T07:29:06;25.38;;;14.95;;
8232;SDS011;4157;48.074;9.952;2023-03-01T07:31:33;25.90;;;16.63;;
8232;SDS011;4157;48.074;9.952;2023-03-01T07:34:02;32.83;;;18.63;;
8232;SDS011;4157;48.074;9.952;2023-03-01T07:36:30;25.73;;;17.42;;
8232;SDS011;4157;48.074;9.952;2023-03-01T07:38:57;26.95;;;14.95;;
8232;SDS011;4157;48.074;9.952;2023-03-01T07:41:27;28.55;;;17.98;;
8232;SDS011;4157;48.074;9.952;2023-03-01T07:43:55;25.73;;;15.57;;
8232;SDS011;4157;48.074;9.952;2023-03-01T07:46:24;29.17;;;16.63;;
8232;SDS011;4157;48.074;9.952;2023-03-01T07:48:52;23.75;;;14.93;;
8232;SDS011;4157;48.074;9.952;2023-03-01T07:51:19;29.15;;;16.23;;
8232;SDS011;4157;48.074;9.952;2023-03-01T07:53:47;27.48;;;16.70;;
8232;SDS011;4157;48.074;9.952;2023-03-01T07:56:15;25.67;;;16.00;;
8232;SDS011;4157;48.074;9.952;2023-03-01T07:58:44;28.05;;;15.35;;
8232;SDS011;4157;48.074;9.952;2023-03-01T08:01:13;25.63;;;16.50;;
8232;SDS011;4157;48.074;9.952;2023-03-01T08:03:42;27.38;;;16.17;;
8232;SDS011;4157;48.074;9.952;2023-03-01T08:06:11;42.40;;;24.25;;
8232;SDS011;4157;48.074;9.952;2023-03-01T08:08:39;30.95;;;19.05;;
8232;SDS011;4157;48.074;9.952;2023-03-01T08:11:07;28.25;;;24.38;;
8232;SDS011;4157;48.074;9.952;2023-03-01T08:13:34;26.73;;;16.55;;
8232;SDS011;4157;48.074;9.952;2023-03-01T08:16:02;27.83;;;15.25;;
8232;SDS011;4157;48.074;9.952;2023-03-01T08:18:30;27.38;;;16.15;;
8232;SDS011;4157;48.074;9.952;2023-03-01T08:21:02;31.23;;;17.52;;
8232;SDS011;4157;48.074;9.952;2023-03-01T08:23:30;26.80;;;16.48;;
8232;SDS011;4157;48.074;9.952;2023-03-01T08:26:04;25.25;;;15.65;;
8232;SDS011;4157;48.074;9.952;2023-03-01T08:28:32;27.55;;;17.65;;
8232;SDS011;4157;48.074;9.952;2023-03-01T08:31:00;27.85;;;17.30;;
8232;SDS011;4157;48.074;9.952;2023-03-01T08:33:27;26.13;;;23.33;;
8232;SDS011;4157;48.074;9.952;2023-03-01T08:36:03;26.70;;;16.65;;
8232;SDS011;4157;48.074;9.952;2023-03-01T08:38:32;27.92;;;17.38;;
8232;SDS011;4157;48.074;9.952;2023-03-01T08:41:00;28.38;;;16.48;;
8232;SDS011;4157;48.074;9.952;2023-03-01T08:43:28;27.65;;;16.58;;
8232;SDS011;4157;48.074;9.952;2023-03-01T08:45:56;27.10;;;15.95;;
8232;SDS011;4157;48.074;9.952;2023-03-01T08:48:23;28.60;;;16.33;;
8232;SDS011;4157;48.074;9.952;2023-03-01T08:50:51;25.80;;;16.15;;
8232;SDS011;4157;48.074;9.952;2023-03-01T08:53:20;25.95;;;17.02;;
8232;SDS011;4157;48.074;9.952;2023-03-01T08:55:48;31.30;;;16.92;;
8232;SDS011;4157;48.074;9.952;2023-03-01T08:58:15;29.75;;;16.63;;
8232;SDS011;4157;48.074;9.952;2023-03-01T09:00:43;29.25;;;17.30;;
8232;SDS011;4157;48.074;9.952;2023-03-01T09:03:10;28.55;;;17.35;;
8232;SDS011;4157;48.074;9.952;2023-03-01T09:05:38;28.85;;;16.42;;
8232;SDS011;4157;48.074;9.952;2023-03-01T09:08:06;25.35;;;15.65;;
8232;SDS011;4157;48.074;9.952;2023-03-01T09:10:38;28.50;;;16.75;;
8232;SDS011;4157;48.074;9.952;2023-03-01T09:13:06;26.90;;;16.58;;
8232;SDS011;4157;48.074;9.952;2023-03-01T09:15:33;24.10;;;21.50;;
8232;SDS011;4157;48.074;9.952;2023-03-01T09:18:01;26.30;;;22.95;;
8232;SDS011;4157;48.074;9.952;2023-03-01T09:20:29;24.52;;;15.15;;
8232;SDS011;4157;48.074;9.952;2023-03-01T09:22:57;25.45;;;15.88;;
8232;SDS011;4157;48.074;9.952;2023-03-01T09:25:25;25.55;;;15.82;;
8232;SDS011;4157;48.074;9.952;2023-03-01T09:27:54;28.33;;;15.80;;
8232;SDS011;4157;48.074;9.952;2023-03-01T09:30:21;26.55;;;16.42;;
8232;SDS011;4157;48.074;9.952;2023-03-01T09:32:49;30.05;;;17.52;;
8232;SDS011;4157;48.074;9.952;2023-03-01T09:35:17;28.88;;;23.20;;
8232;SDS011;4157;48.074;9.952;2023-03-01T09:37:45;27.75;;;23.35;;
8232;SDS011;4157;48.074;9.952;2023-03-01T09:40:16;29.10;;;16.38;;
8232;SDS011;4157;48.074;9.952;2023-03-01T09:42:50;24.90;;;14.90;;
8232;SDS011;4157;48.074;9.952;2023-03-01T09:45:23;25.45;;;15.48;;
8232;SDS011;4157;48.074;9.952;2023-03-01T09:47:52;26.25;;;16.63;;
8232;SDS011;4157;48.074;9.952;2023-03-01T09:50:21;25.60;;;21.88;;
8232;SDS011;4157;48.074;9.952;2023-03-01T09:52:50;29.48;;;23.83;;
8232;SDS011;4157;48.074;9.952;2023-03-01T09:55:22;23.45;;;14.27;;
8232;SDS011;4157;48.074;9.952;2023-03-01T09:57:53;24.42;;;15.27;;
8232;SDS011;4157;48.074;9.952;2023-03-01T10:00:29;25.73;;;15.13;;
8232;SDS011;4157;48.074;9.952;2023-03-01T10:02:58;25.52;;;21.67;;
8232;SDS011;4157;48.074;9.952;2023-03-01T10:05:34;25.60;;;22.52;;
8232;SDS011;4157;48.074;9.952;2023-03-01T10:08:13;25.27;;;21.13;;
8232;SDS011;4157;48.074;9.952;2023-03-01T10:10:46;25.67;;;16.55;;
8232;SDS011;4157;48.074;9.952;2023-03-01T10:13:15;26.70;;;15.20;;
8232;SDS011;4157;48.074;9.952;2023-03-01T10:15:47;27.45;;;16.50;;
8232;SDS011;4157;48.074;9.952;2023-03-01T10:18:21;28.95;;;16.42;;
8232;SDS011;4157;48.074;9.952;2023-03-01T10:20:52;26.88;;;15.50;;
8232;SDS011;4157;48.074;9.952;2023-03-01T10:23:20;25.80;;;14.68;;
8232;SDS011;4157;48.074;9.952;2023-03-01T10:25:51;26.95;;;16.45;;
8232;SDS011;4157;48.074;9.952;2023-03-01T10:28:24;26.63;;;16.25;;
8232;SDS011;4157;48.074;9.952;2023-03-01T10:30:54;25.88;;;14.98;;
8232;SDS011;4157;48.074;9.952;2023-03-01T10:33:23;26.13;;;15.85;;
8232;SDS011;4157;48.074;9.952;2023-03-01T10:35:52;29.05;;;15.65;;
8232;SDS011;4157;48.074;9.952;2023-03-01T10:38:20;28.17;;;15.85;;
8232;SDS011;4157;48.074;9.952;2023-03-01T10:40:51;27.40;;;16.35;;
8232;SDS011;4157;48.074;9.952;2023-03-01T10:43:19;28.65;;;23.92;;
8232;SDS011;4157;48.074;9.952;2023-03-01T10:45:47;26.45;;;16.30;;
8232;SDS011;4157;48.074;9.952;2023-03-01T10:48:17;29.52;;;17.17;;
8232;SDS011;4157;48.074;9.952;2023-03-01T10:50:45;27.27;;;16.23;;
8232;SDS011;4157;48.074;9.952;2023-03-01T10:53:21;25.52;;;15.13;;
8232;SDS011;4157;48.074;9.952;2023-03-01T10:55:56;27.20;;;15.38;;
8232;SDS011;4157;48.074;9.952;2023-03-01T10:58:24;26.75;;;15.05;;
8232;SDS011;4157;48.074;9.952;2023-03-01T11:00:52;29.85;;;16.65;;
8232;SDS011;4157;48.074;9.952;2023-03-01T11:03:23;27.08;;;16.33;;
8232;SDS011;4157;48.074;9.952;2023-03-01T11:05:52;28.17;;;17.40;;
8232;SDS011;4157;48.074;9.952;2023-03-01T11:08:30;32.28;;;16.13;;
8232;SDS011;4157;48.074;9.952;2023-03-01T11:13:49;26.65;;;23.38;;
8232;SDS011;4157;48.074;9.952;2023-03-01T11:16:22;24.00;;;14.63;;
8232;SDS011;4157;48.074;9.952;2023-03-01T11:18:57;28.73;;;17.95;;
8232;SDS011;4157;48.074;9.952;2023-03-01T11:21:25;28.00;;;23.83;;
8232;SDS011;4157;48.074;9.952;2023-03-01T11:23:54;27.25;;;21.92;;
8232;SDS011;4157;48.074;9.952;2023-03-01T11:26:21;27.40;;;22.95;;
8232;SDS011;4157;48.074;9.952;2023-03-01T11:28:51;26.90;;;16.02;;
8232;SDS011;4157;48.074;9.952;2023-03-01T11:31:19;28.45;;;16.83;;
8232;SDS011;4157;48.074;9.952;2023-03-01T11:33:48;28.30;;;23.95;;
8232;SDS011;4157;48.074;9.952;2023-03-01T11:36:22;29.77;;;25.77;;
8232;SDS011;4157;48.074;9.952;2023-03-01T11:38:51;31.13;;;16.58;;
8232;SDS011;4157;48.074;9.952;2023-03-01T11:41:21;24.40;;;16.42;;
8232;SDS011;4157;48.074;9.952;2023-03-01T11:43:52;27.48;;;16.38;;
8232;SDS011;4157;48.074;9.952;2023-03-01T11:46:28;29.77;;;25.30;;
8232;SDS011;4157;48.074;9.952;2023-03-01T11:49:02;27.58;;;24.45;;
8232;SDS011;4157;48.074;9.952;2023-03-01T11:51:38;27.25;;;16.27;;
8232;SDS011;4157;48.074;9.952;2023-03-01T11:54:18;28.98;;;15.82;;
8232;SDS011;4157;48.074;9.952;2023-03-01T11:56:50;29.08;;;17.10;;
8232;SDS011;4157;48.074;9.952;2023-03-01T12:02:27;28.17;;;17.33;;
8232;SDS011;4157;48.074;9.952;2023-03-01T12:05:05;28.65;;;16.30;;
8232;SDS011;4157;48.074;9.952;2023-03-01T12:07:44;27.15;;;22.67;;
8232;SDS011;4157;48.074;9.952;2023-03-01T12:10:19;25.92;;;21.77;;
8232;SDS011;4157;48.074;9.952;2023-03-01T12:12:51;31.33;;;17.20;;
8232;SDS011;4157;48.074;9.952;2023-03-01T12:15:33;31.75;;;16.90;;
8232;SDS011;4157;48.074;9.952;2023-03-01T12:18:09;31.05;;;17.80;;
8232;SDS011;4157;48.074;9.952;2023-03-01T12:20:40;28.83;;;17.23;;
8232;SDS011;4157;48.074;9.952;2023-03-01T12:23:28;28.48;;;22.92;;
8232;SDS011;4157;48.074;9.952;2023-03-01T12:26:03;26.88;;;23.40;;
8232;SDS011;4157;48.074;9.952;2023-03-01T12:28:38;27.67;;;17.55;;
8232;SDS011;4157;48.074;9.952;2023-03-01T12:31:16;29.63;;;18.45;;
8232;SDS011;4157;48.074;9.952;2023-03-01T12:33:52;30.60;;;26.25;;
8232;SDS011;4157;48.074;9.952;2023-03-01T12:39:09;29.48;;;23.75;;
8232;SDS011;4157;48.074;9.952;2023-03-01T12:41:46;27.77;;;24.00;;
8232;SDS011;4157;48.074;9.952;2023-03-01T12:44:21;29.20;;;23.77;;
8232;SDS011;4157;48.074;9.952;2023-03-01T12:46:53;26.05;;;22.40;;
8232;SDS011;4157;48.074;9.952;2023-03-01T12:51:54;27.75;;;16.30;;
8232;SDS011;4157;48.074;9.952;2023-03-01T12:54:26;28.55;;;18.08;;
8232;SDS011;4157;48.074;9.952;2023-03-01T12:56:54;26.38;;;22.30;;
8232;SDS011;4157;48.074;9.952;2023-03-01T12:59:24;27.02;;;23.02;;
8232;SDS011;4157;48.074;9.952;2023-03-01T13:01:56;25.08;;;22.15;;
8232;SDS011;4157;48.074;9.952;2023-03-01T13:04:29;27.48;;;22.13;;
8232;SDS011;4157;48.074;9.952;2023-03-01T13:07:05;23.40;;;20.17;;
8232;SDS011;4157;48.074;9.952;2023-03-01T13:09:37;23.83;;;20.35;;
8232;SDS011;4157;48.074;9.952;2023-03-01T13:15:17;22.83;;;19.30;;
8232;SDS011;4157;48.074;9.952;2023-03-01T13:17:52;24.20;;;21.13;;
8232;SDS011;4157;48.074;9.952;2023-03-01T13:20:21;24.85;;;21.13;;
8232;SDS011;4157;48.074;9.952;2023-03-01T13:22:59;24.95;;;20.13;;
8232;SDS011;4157;48.074;9.952;2023-03-01T13:25:29;25.80;;;21.17;;
8232;SDS011;4157;48.074;9.952;2023-03-01T13:30:40;28.83;;;23.45;;
8232;SDS011;4157;48.074;9.952;2023-03-01T13:35:57;23.25;;;20.60;;
8232;SDS011;4157;48.074;9.952;2023-03-01T13:38:38;23.63;;;19.33;;
8232;SDS011;4157;48.074;9.952;2023-03-01T13:41:08;23.52;;;20.88;;
8232;SDS011;4157;48.074;9.952;2023-03-01T13:43:36;23.73;;;19.33;;
8232;SDS011;4157;48.074;9.952;2023-03-01T13:46:07;23.50;;;20.35;;
8232;SDS011;4157;48.074;9.952;2023-03-01T13:48:36;22.30;;;19.70;;
8232;SDS011;4157;48.074;9.952;2023-03-01T13:51:06;23.08;;;18.98;;
8232;SDS011;4157;48.074;9.952;2023-03-01T13:53:36;23.08;;;19.95;;
8232;SDS011;4157;48.074;9.952;2023-03-01T13:56:08;25.00;;;20.50;;
8232;SDS011;4157;48.074;9.952;2023-03-01T13:58:44;30.08;;;20.65;;
8232;SDS011;4157;48.074;9.952;2023-03-01T14:01:20;28.67;;;21.33;;
8232;SDS011;4157;48.074;9.952;2023-03-01T14:03:48;34.55;;;19.73;;
8232;SDS011;4157;48.074;9.952;2023-03-01T14:06:17;23.38;;;20.58;;
8232;SDS011;4157;48.074;9.952;2023-03-01T14:08:48;23.10;;;19.30;;
8232;SDS011;4157;48.074;9.952;2023-03-01T14:14:13;25.08;;;21.73;;
8232;SDS011;4157;48.074;9.952;2023-03-01T14:16:46;26.30;;;20.58;;
8232;SDS011;4157;48.074;9.952;2023-03-01T14:19:18;26.70;;;20.42;;
8232;SDS011;4157;48.074;9.952;2023-03-01T14:21:56;23.55;;;20.55;;
8232;SDS011;4157;48.074;9.952;2023-03-01T14:24:27;23.20;;;19.75;;
8232;SDS011;4157;48.074;9.952;2023-03-01T14:26:55;24.45;;;20.40;;
8232;SDS011;4157;48.074;9.952;2023-03-01T14:29:25;23.75;;;20.02;;
8232;SDS011;4157;48.074;9.952;2023-03-01T14:31:53;22.33;;;18.75;;
8232;SDS011;4157;48.074;9.952;2023-03-01T14:34:21;22.45;;;19.27;;
8232;SDS011;4157;48.074;9.952;2023-03-01T14:36:49;25.27;;;20.25;;
8232;SDS011;4157;48.074;9.952;2023-03-01T14:39:17;23.05;;;19.77;;
8232;SDS011;4157;48.074;9.952;2023-03-01T14:41:45;24.85;;;19.45;;
8232;SDS011;4157;48.074;9.952;2023-03-01T14:44:14;23.92;;;20.67;;
8232;SDS011;4157;48.074;9.952;2023-03-01T14:46:45;24.88;;;20.35;;
8232;SDS011;4157;48.074;9.952;2023-03-01T14:49:14;23.17;;;19.75;;
8232;SDS011;4157;48.074;9.952;2023-03-01T14:51:43;23.98;;;19.77;;
8232;SDS011;4157;48.074;9.952;2023-03-01T14:54:20;22.38;;;18.40;;
8232;SDS011;4157;48.074;9.952;2023-03-01T14:56:48;23.03;;;19.47;;
8232;SDS011;4157;48.074;9.952;2023-03-01T14:59:15;23.45;;;19.05;;
8232;SDS011;4157;48.074;9.952;2023-03-01T15:01:46;25.05;;;20.02;;
8232;SDS011;4157;48.074;9.952;2023-03-01T15:04:14;26.35;;;20.55;;
8232;SDS011;4157;48.074;9.952;2023-03-01T15:06:42;23.80;;;19.77;;
8232;SDS011;4157;48.074;9.952;2023-03-01T15:09:12;24.70;;;19.67;;
8232;SDS011;4157;48.074;9.952;2023-03-01T15:11:42;24.25;;;19.50;;
8232;SDS011;4157;48.074;9.952;2023-03-01T15:14:24;22.85;;;19.80;;
8232;SDS011;4157;48.074;9.952;2023-03-01T15:16:54;23.52;;;19.88;;
8232;SDS011;4157;48.074;9.952;2023-03-01T15:19:21;25.60;;;19.48;;
8232;SDS011;4157;48.074;9.952;2023-03-01T15:21:51;23.50;;;19.67;;
8232;SDS011;4157;48.074;9.952;2023-03-01T15:24:20;24.42;;;20.17;;
8232;SDS011;4157;48.074;9.952;2023-03-01T15:26:51;25.02;;;20.75;;
8232;SDS011;4157;48.074;9.952;2023-03-01T15:29:21;23.08;;;19.40;;
8232;SDS011;4157;48.074;9.952;2023-03-01T15:31:57;23.83;;;20.75;;
8232;SDS011;4157;48.074;9.952;2023-03-01T15:34:26;23.80;;;20.25;;
8232;SDS011;4157;48.074;9.952;2023-03-01T15:36:54;24.27;;;21.30;;
8232;SDS011;4157;48.074;9.952;2023-03-01T15:39:27;24.58;;;21.60;;
8232;SDS011;4157;48.074;9.952;2023-03-01T15:41:55;25.55;;;21.10;;
8232;SDS011;4157;48.074;9.952;2023-03-01T15:44:25;23.50;;;20.90;;
8232;SDS011;4157;48.074;9.952;2023-03-01T15:46:53;25.27;;;20.98;;
8232;SDS011;4157;48.074;9.952;2023-03-01T15:49:25;24.80;;;21.52;;
8232;SDS011;4157;48.074;9.952;2023-03-01T15:51:55;25.40;;;22.10;;
8232;SDS011;4157;48.074;9.952;2023-03-01T15:54:23;23.85;;;20.75;;
8232;SDS011;4157;48.074;9.952;2023-03-01T15:56:52;25.95;;;22.90;;
8232;SDS011;4157;48.074;9.952;2023-03-01T15:59:20;24.95;;;22.23;;
8232;SDS011;4157;48.074;9.952;2023-03-01T16:01:48;24.15;;;21.50;;
8232;SDS011;4157;48.074;9.952;2023-03-01T16:04:16;24.67;;;21.80;;
8232;SDS011;4157;48.074;9.952;2023-03-01T16:06:50;23.52;;;21.00;;
8232;SDS011;4157;48.074;9.952;2023-03-01T16:09:21;24.65;;;22.05;;
8232;SDS011;4157;48.074;9.952;2023-03-01T16:11:49;29.77;;;22.67;;
8232;SDS011;4157;48.074;9.952;2023-03-01T16:14:17;26.42;;;22.13;;
8232;SDS011;4157;48.074;9.952;2023-03-01T16:16:45;25.60;;;22.42;;
8232;SDS011;4157;48.074;9.952;2023-03-01T16:19:13;25.10;;;22.02;;
8232;SDS011;4157;48.074;9.952;2023-03-01T16:21:41;25.90;;;21.25;;
8232;SDS011;4157;48.074;9.952;2023-03-01T16:24:13;25.48;;;22.38;;
8232;SDS011;4157;48.074;9.952;2023-03-01T16:26:42;25.65;;;21.65;;
8232;SDS011;4157;48.074;9.952;2023-03-01T16:29:10;25.17;;;22.35;;
8232;SDS011;4157;48.074;9.952;2023-03-01T16:31:37;26.55;;;21.90;;
8232;SDS011;4157;48.074;9.952;2023-03-01T16:34:05;25.35;;;22.65;;
8232;SDS011;4157;48.074;9.952;2023-03-01T16:36:33;24.42;;;21.55;;
8232;SDS011;4157;48.074;9.952;2023-03-01T16:39:00;28.08;;;24.13;;
8232;SDS011;4157;48.074;9.952;2023-03-01T16:41:30;29.63;;;24.80;;
8232;SDS011;4157;48.074;9.952;2023-03-01T16:43:57;25.05;;;22.08;;
8232;SDS011;4157;48.074;9.952;2023-03-01T16:46:26;25.95;;;22.90;;
8232;SDS011;4157;48.074;9.952;2023-03-01T16:48:54;26.08;;;21.52;;
8232;SDS011;4157;48.074;9.952;2023-03-01T16:51:23;25.67;;;22.10;;
8232;SDS011;4157;48.074;9.952;2023-03-01T16:53:51;29.38;;;24.70;;
8232;SDS011;4157;48.074;9.952;2023-03-01T16:56:18;26.63;;;23.13;;